This is the latest recevied weather packets stored in our database for station/object N1PRS-9. If no packets are shown the sender has not sent any weather packets the latest 10 day(s).
| Time | Temp. | Humidity | Pressure | Rain* | Wind** | Luminosity | Snow |
|---|---|---|---|---|---|---|---|
| 1777524034 | 10° C | 85% | 1010.7 hPa | 0 mm | - | 0 W/m² | - |
| 1777520433 | 11.11° C | 81% | 1011.3 hPa | 0 mm | - | 0 W/m² | - |
| 1777517435 | 11.67° C | 77% | 1011.2 hPa | 0 mm | - | 0 W/m² | - |
| 1777515033 | 11.67° C | 74% | 1011.5 hPa | 0 mm | - | 0 W/m² | - |
| 1777513833 | 12.22° C | 74% | 1011.7 hPa | 0 mm | - | 0 W/m² | - |
| 1777513545 | 12.22° C | 74% | 1011.6 hPa | 0 mm | - | 0 W/m² | - |
| 1777510849 | 12.78° C | 72% | 1011.1 hPa | 0 mm | - | 0 W/m² | - |
| 1777510533 | 12.78° C | 71% | 1011.1 hPa | 0 mm | - | 0 W/m² | - |
| 1777509045 | 13.33° C | 69% | 1011.1 hPa | 0 mm | - | 0 W/m² | - |
| 1777507837 | 13.89° C | 67% | 1011.3 hPa | 0 mm | - | 0 W/m² | - |
| 1777506033 | 15° C | 64% | 1011.1 hPa | 0 mm | - | 0 W/m² | - |
| 1777503646 | 15.56° C | 62% | 1011.2 hPa | 0 mm | - | 77 W/m² | - |
| 1777500632 | 16.67° C | 59% | 1011.6 hPa | 0 mm | - | 121 W/m² | - |
| 1777498248 | 17.22° C | 55% | 1011.3 hPa | 0 mm | - | 149 W/m² | - |
| 1777496132 | 18.89° C | 52% | 1011.9 hPa | 0 mm | - | 165 W/m² | - |
| 1777495550 | 18.89° C | 52% | 1011.9 hPa | 0 mm | - | 206 W/m² | - |
| 1777494642 | 19.44° C | 52% | 1012.2 hPa | 0 mm | - | 390 W/m² | - |
| 1777493745 | 18.89° C | 54% | 1012.4 hPa | 0 mm | - | 424 W/m² | - |
| 1777492851 | 18.89° C | 53% | 1012.3 hPa | 0 mm | - | 385 W/m² | - |
| 1777492231 | 18.89° C | 53% | 1012.4 hPa | 0 mm | - | 359 W/m² | - |
| 1777491336 | 18.89° C | 55% | 1012.5 hPa | 0 mm | - | 251 W/m² | - |
| 1777490431 | 19.44° C | 54% | 1012.4 hPa | 0 mm | - | 338 W/m² | - |
| 1777488632 | 19.44° C | 51% | 1013 hPa | 0 mm | - | 339 W/m² | - |
| 1777488345 | 20° C | 52% | 1013.1 hPa | 0 mm | - | 327 W/m² | - |
| 1777487733 | 20° C | 51% | 1013.2 hPa | 0 mm | - | 464 W/m² | - |
* Rain latest hour (hover to see other rain measurements)
** Current wind speed in m/s (hover to see current wind gust speed)